Terminal Aerodrome Forecast
Issued by NWS

Home | Current Version | Previous Version | Text Only | Print | Product List | Glossary On
Versions: 1 2 3 4 5 6 7 8 9 10 11 12 13 14
750
FTUS44 KSJT 301150
TAFBBD
TAF
KBBD 301150Z 3012/3112 16008KT P6SM BKN015
     FM301800 15008KT P6SM BKN050
     FM310000 13009KT P6SM SCT050 BKN250
     FM310700 15006KT P6SM OVC015
      AMD NOT SKED=

USA.gov is the U.S. government's official web portal to all federal, state and local government web resources and services.